Time;durP1;ratioP1;P1;durP2;ratioP2;P2;SDS_P1;SDS_P2;PMS_P1;PMS_P2;Temp;Humidity;BMP_temperature;BMP_pressure;BME280_temperature;BME280_humidity;BME280_pressure;Samples;Min_cycle;Max_cycle;Signal;HPM_P1;HPM_P2
2022/10/15 00:01:53;;;;;;;1.07;0.70;;;;;;;;;;6246052;23;20399;-88
2022/10/15 00:04:19;;;;;;;0.70;0.60;;;;;;;;;;6243253;23;20426;-88
2022/10/15 00:06:45;;;;;;;0.80;0.80;;;14.20;99.90;;;;;;6245105;23;20367;-89
2022/10/15 00:09:10;;;;;;;4.53;1.30;;;14.20;99.90;;;;;;6244182;23;20447;-90
2022/10/15 00:11:36;;;;;;;1.33;0.90;;;14.00;99.90;;;;;;6242550;23;20192;-88
2022/10/15 00:14:02;;;;;;;4.83;1.70;;;;;;;;;;6240787;23;20191;-88
2022/10/15 00:16:28;;;;;;;1.10;0.97;;;14.20;99.90;;;;;;6244381;23;20623;-88
2022/10/15 00:18:58;;;;;;;4.50;0.57;;;14.20;99.90;;;;;;6240870;23;20386;-88
2022/10/15 00:21:24;;;;;;;3.43;0.80;;;;;;;;;;6240214;22;20429;-88
2022/10/15 00:23:50;;;;;;;0.67;0.67;;;;;;;;;;6238254;23;20368;-88
2022/10/15 00:26:21;;;;;;;2.30;0.80;;;14.20;99.90;;;;;;6242305;23;20383;-88
2022/10/15 00:28:50;;;;;;;4.43;0.83;;;14.20;99.90;;;;;;6242671;22;20385;-90
2022/10/15 00:31:17;;;;;;;1.70;0.77;;;14.20;99.90;;;;;;6242398;23;20987;-89
2022/10/15 00:33:43;;;;;;;1.80;0.50;;;;;;;;;;6241276;23;20459;-88
2022/10/15 00:36:14;;;;;;;3.20;0.73;;;14.30;99.90;;;;;;6241648;23;21178;-89
2022/10/15 00:38:40;;;;;;;0.40;0.40;;;;;;;;;;6239565;23;20379;-90
2022/10/15 00:41:09;;;;;;;0.70;0.70;;;14.30;99.90;;;;;;6240834;23;20474;-89
2022/10/15 00:43:50;;;;;;;0.57;0.53;;;14.30;99.90;;;;;;6236882;23;20449;-88
2022/10/15 00:46:27;;;;;;;0.80;0.50;;;14.30;99.90;;;;;;6239358;23;20383;-88
2022/10/15 00:49:20;;;;;;;0.70;0.70;;;14.30;99.90;;;;;;6236737;23;20395;-89
2022/10/15 00:51:56;;;;;;;3.50;0.83;;;14.30;99.90;;;;;;6242204;23;20468;-88
2022/10/15 00:54:25;;;;;;;0.60;0.60;;;14.30;99.90;;;;;;6243806;23;20390;-89
2022/10/15 00:56:51;;;;;;;1.27;0.80;;;14.30;99.90;;;;;;6243774;23;20505;-89
2022/10/15 00:59:20;;;;;;;1.30;0.77;;;14.30;99.90;;;;;;6241179;22;20511;-87
2022/10/15 01:01:46;;;;;;;1.13;0.70;;;;;;;;;;6246851;23;20160;-89
2022/10/15 01:04:12;;;;;;;0.97;0.60;;;;;;;;;;6245465;23;20364;-87
2022/10/15 01:06:39;;;;;;;0.70;0.60;;;;;;;;;;6245934;23;20399;-90
2022/10/15 01:09:05;;;;;;;1.57;0.80;;;;;;;;;;6245806;23;20941;-89
2022/10/15 01:11:45;;;;;;;0.60;0.60;;;14.30;99.90;;;;;;6250076;23;20398;-89
2022/10/15 01:14:36;;;;;;;1.03;0.93;;;14.30;99.90;;;;;;6246568;23;20706;-90
2022/10/15 01:17:19;;;;;;;1.00;0.90;;;14.30;99.90;;;;;;6246928;23;20458;-89
2022/10/15 01:20:35;;;;;;;0.80;0.70;;;14.40;99.90;;;;;;6245583;23;20399;-89
2022/10/15 01:23:42;;;;;;;2.67;0.57;;;14.30;99.90;;;;;;6244268;23;20377;-89
2022/10/15 01:26:46;;;;;;;0.77;0.70;;;14.30;99.90;;;;;;6245210;23;20406;-88
2022/10/15 01:29:28;;;;;;;1.47;0.67;;;14.40;99.90;;;;;;6245653;23;20445;-88
2022/10/15 01:32:20;;;;;;;0.60;0.60;;;14.40;99.90;;;;;;6243252;23;20387;-87
2022/10/15 01:34:45;;;;;;;1.63;0.70;;;14.40;99.90;;;;;;6242055;23;20375;-89
2022/10/15 01:37:34;;;;;;;1.33;1.00;;;14.40;99.90;;;;;;6241129;23;20524;-87
2022/10/15 01:40:11;;;;;;;2.37;0.80;;;14.50;99.90;;;;;;6243467;23;20175;-89
2022/10/15 01:43:10;;;;;;;4.07;0.60;;;14.50;99.90;;;;;;6243841;22;20355;-88
2022/10/15 01:46:13;;;;;;;1.27;0.40;;;14.50;99.90;;;;;;6229216;23;20379;-87
2022/10/15 01:48:40;;;;;;;0.50;0.50;;;14.50;99.90;;;;;;6207368;23;20403;-87
2022/10/15 01:51:09;;;;;;;1.83;0.50;;;14.50;99.90;;;;;;6244737;23;20453;-87
2022/10/15 01:53:36;;;;;;;0.70;0.70;;;14.50;99.90;;;;;;6247198;23;20398;-88
2022/10/15 01:56:14;;;;;;;1.90;0.70;;;14.50;99.90;;;;;;6247085;23;20853;-88
2022/10/15 01:58:42;;;;;;;1.77;0.40;;;14.50;99.90;;;;;;6248263;23;20461;-88
2022/10/15 02:01:09;;;;;;;0.63;0.50;;;;;;;;;;6248215;23;20410;-89
2022/10/15 02:04:01;;;;;;;0.50;0.40;;;14.60;99.90;;;;;;6245745;23;20466;-87
2022/10/15 02:06:27;;;;;;;2.30;0.53;;;;;;;;;;6243980;23;20865;-88
2022/10/15 02:09:14;;;;;;;1.50;0.50;;;14.60;99.90;;;;;;6245635;23;20395;-88
2022/10/15 02:11:59;;;;;;;0.60;0.53;;;14.20;99.90;;;;;;6246804;23;20445;-89
2022/10/15 02:14:35;;;;;;;0.40;0.40;;;14.70;99.90;;;;;;6247805;23;20398;-88
2022/10/15 02:17:08;;;;;;;0.30;0.30;;;14.80;99.90;;;;;;6248155;23;20437;-88
2022/10/15 02:19:40;;;;;;;0.60;0.40;;;14.80;99.90;;;;;;6248193;23;20418;-88
2022/10/15 02:22:12;;;;;;;3.50;1.13;;;14.90;99.90;;;;;;6251603;23;20398;-89
2022/10/15 02:24:43;;;;;;;0.40;0.40;;;14.90;99.90;;;;;;6255048;23;20368;-87
2022/10/15 02:27:11;;;;;;;0.80;0.30;;;14.90;99.90;;;;;;6257647;23;20754;-89
2022/10/15 02:29:41;;;;;;;0.67;0.40;;;14.90;99.90;;;;;;6258505;23;20493;-89
2022/10/15 02:32:09;;;;;;;0.70;0.40;;;15.00;99.90;;;;;;6257073;23;20378;-89
2022/10/15 02:34:35;;;;;;;0.40;0.37;;;;;;;;;;6256302;23;20422;-89
2022/10/15 02:37:06;;;;;;;0.40;0.30;;;15.10;99.90;;;;;;6253995;23;20612;-89
2022/10/15 02:39:33;;;;;;;0.33;0.23;;;15.10;99.90;;;;;;6252741;23;20474;-90
2022/10/15 02:41:59;;;;;;;0.50;0.40;;;;;;;;;;6255323;23;20386;-88
2022/10/15 02:44:26;;;;;;;0.40;0.30;;;;;;;;;;6254758;23;20395;-88
2022/10/15 02:46:52;;;;;;;0.30;0.30;;;;;;;;;;6251126;23;20395;-88
2022/10/15 02:49:22;;;;;;;0.40;0.30;;;15.40;99.90;;;;;;6251751;23;20399;-89
2022/10/15 02:51:48;;;;;;;1.43;0.30;;;;;;;;;;6249758;23;20405;-89
2022/10/15 02:54:14;;;;;;;0.40;0.30;;;;;;;;;;6250238;23;20426;-88
2022/10/15 02:56:40;;;;;;;0.80;0.30;;;;;;;;;;6245711;23;20426;-87
2022/10/15 02:59:06;;;;;;;0.57;0.40;;;;;;;;;;6247771;23;20411;-88
2022/10/15 03:01:33;;;;;;;0.50;0.30;;;;;;;;;;6242290;23;20370;-86
2022/10/15 03:04:10;;;;;;;0.50;0.30;;;;;;;;;;6246347;23;20386;-88
2022/10/15 03:06:36;;;;;;;0.30;0.30;;;;;;;;;;6252870;23;20364;-89
2022/10/15 03:09:03;;;;;;;0.40;0.30;;;;;;;;;;6252856;23;20411;-88
2022/10/15 03:11:29;;;;;;;0.40;0.30;;;;;;;;;;6252140;23;20375;-90
2022/10/15 03:13:55;;;;;;;0.87;0.30;;;;;;;;;;6251025;23;20387;-89
2022/10/15 03:16:21;;;;;;;3.43;0.30;;;;;;;;;;6249131;23;20387;-88
2022/10/15 03:18:47;;;;;;;1.73;0.40;;;;;;;;;;6249931;23;20414;-87
2022/10/15 03:21:13;;;;;;;0.50;0.30;;;;;;;;;;6248828;23;20404;-87
2022/10/15 03:23:40;;;;;;;5.13;0.40;;;;;;;;;;6248364;23;20439;-86
2022/10/15 03:26:06;;;;;;;0.30;0.30;;;;;;;;;;6249309;23;20466;-87
2022/10/15 03:28:32;;;;;;;0.30;0.30;;;;;;;;;;6248892;23;20391;-88
2022/10/15 03:30:58;;;;;;;1.80;0.30;;;;;;;;;;6250412;23;20367;-89
2022/10/15 03:33:25;;;;;;;3.00;0.40;;;;;;;;;;6250825;23;20371;-87
2022/10/15 03:35:51;;;;;;;0.40;0.30;;;;;;;;;;6251113;23;20472;-89
2022/10/15 03:38:19;;;;;;;1.57;0.30;;;;;;;;;;6253999;23;20427;-90
2022/10/15 03:40:45;;;;;;;0.40;0.30;;;;;;;;;;6253814;23;20439;-89
2022/10/15 03:43:11;;;;;;;0.40;0.30;;;;;;;;;;6248359;23;20372;-88
2022/10/15 03:45:39;;;;;;;0.47;0.27;;;;;;;;;;6254602;23;20811;-88
2022/10/15 03:48:05;;;;;;;0.40;0.30;;;;;;;;;;6250402;23;20379;-89
2022/10/15 03:50:31;;;;;;;2.30;0.30;;;;;;;;;;6249137;23;20407;-88
2022/10/15 03:53:05;;;;;;;0.30;0.30;;;;;;;;;;6247868;23;20372;-88
2022/10/15 03:55:31;;;;;;;0.70;0.30;;;;;;;;;;6247946;23;20388;-88
2022/10/15 03:57:57;;;;;;;1.03;0.40;;;;;;;;;;6245799;23;20419;-88
2022/10/15 04:00:23;;;;;;;0.37;0.30;;;;;;;;;;6246755;23;20399;-89
2022/10/15 04:02:49;;;;;;;0.43;0.43;;;;;;;;;;6247355;23;20367;-89
2022/10/15 04:05:15;;;;;;;0.60;0.50;;;;;;;;;;6251143;23;20367;-90
2022/10/15 04:07:42;;;;;;;0.40;0.40;;;;;;;;;;6246413;23;20371;-89
2022/10/15 04:10:08;;;;;;;0.40;0.30;;;;;;;;;;6248700;23;20486;-88
2022/10/15 04:12:34;;;;;;;0.50;0.40;;;;;;;;;;6246957;23;20375;-88
2022/10/15 04:15:00;;;;;;;0.40;0.30;;;;;;;;;;6250203;23;20411;-88
2022/10/15 04:17:26;;;;;;;0.47;0.43;;;;;;;;;;6250951;23;20518;-89
2022/10/15 04:19:52;;;;;;;2.77;0.63;;;;;;;;;;6249500;23;20399;-88
2022/10/15 04:22:18;;;;;;;0.40;0.40;;;;;;;;;;6246941;23;20371;-87
2022/10/15 04:24:44;;;;;;;0.50;0.40;;;;;;;;;;6248497;23;20387;-89
2022/10/15 04:27:12;;;;;;;0.60;0.50;;;15.60;99.90;;;;;;6249255;23;20371;-88
2022/10/15 04:29:38;;;;;;;2.20;0.93;;;;;;;;;;6250435;23;20403;-88
2022/10/15 04:32:04;;;;;;;0.80;0.70;;;;;;;;;;6249147;23;20471;-89
2022/10/15 04:34:34;;;;;;;0.70;0.70;;;;;;;;;;6249012;23;20446;-87
2022/10/15 04:37:00;;;;;;;2.70;0.70;;;;;;;;;;6247123;23;20865;-88
2022/10/15 04:39:26;;;;;;;0.70;0.70;;;;;;;;;;6250848;23;20398;-88
2022/10/15 04:41:52;;;;;;;0.60;0.60;;;;;;;;;;6250140;23;20433;-88
2022/10/15 04:44:18;;;;;;;0.80;0.80;;;;;;;;;;6249108;23;20367;-88
2022/10/15 04:46:44;;;;;;;1.00;0.90;;;;;;;;;;6247180;23;20391;-87
2022/10/15 04:49:10;;;;;;;1.27;0.80;;;;;;;;;;6248014;23;20437;-89
2022/10/15 04:51:36;;;;;;;2.00;0.83;;;;;;;;;;6249496;23;20383;-88
2022/10/15 04:54:03;;;;;;;0.70;0.60;;;;;;;;;;6249169;23;20849;-89
2022/10/15 04:56:29;;;;;;;2.10;0.70;;;;;;;;;;6249457;23;20462;-88
2022/10/15 04:58:55;;;;;;;0.40;0.40;;;;;;;;;;6249805;23;20407;-88
2022/10/15 05:01:21;;;;;;;0.50;0.40;;;;;;;;;;6249738;23;20368;-88
2022/10/15 05:03:48;;;;;;;1.23;1.13;;;15.50;99.90;;;;;;6248338;23;20442;-88
2022/10/15 05:06:16;;;;;;;0.90;0.60;;;15.50;99.90;;;;;;6248818;23;20850;-88
2022/10/15 05:08:43;;;;;;;0.70;0.63;;;;;;;;;;6243023;23;20422;-87
2022/10/15 05:11:12;;;;;;;1.23;0.80;;;15.50;99.90;;;;;;6243311;23;20426;-87
2022/10/15 05:13:38;;;;;;;1.63;0.70;;;;;;;;;;6243437;23;20376;-87
2022/10/15 05:16:22;;;;;;;0.70;0.70;;;15.50;99.90;;;;;;6243343;23;20379;-86
2022/10/15 05:18:49;;;;;;;1.47;0.80;;;15.50;99.90;;;;;;6245187;22;20391;-89
2022/10/15 05:21:16;;;;;;;0.93;0.73;;;15.50;99.90;;;;;;6242611;23;20880;-89
2022/10/15 05:23:43;;;;;;;1.37;0.80;;;;;;;;;;6242387;23;20385;-88
2022/10/15 05:26:18;;;;;;;0.90;0.90;;;15.50;99.90;;;;;;6244110;23;20785;-88
2022/10/15 05:28:44;;;;;;;2.10;1.00;;;;;;;;;;6246688;23;20441;-89
2022/10/15 05:31:15;;;;;;;0.50;0.50;;;15.40;99.90;;;;;;6247237;23;20368;-89
2022/10/15 05:33:41;;;;;;;0.63;0.63;;;;;;;;;;6246019;23;20478;-90
2022/10/15 05:36:08;;;;;;;0.90;0.90;;;15.40;99.90;;;;;;6247073;23;20363;-89
2022/10/15 05:38:34;;;;;;;0.87;0.87;;;;;;;;;;6249304;22;20482;-88
2022/10/15 05:41:00;;;;;;;2.53;1.40;;;;;;;;;;6247554;23;20372;-89
2022/10/15 05:43:26;;;;;;;1.27;1.17;;;;;;;;;;6248032;23;20364;-90
2022/10/15 05:45:59;;;;;;;1.10;0.87;;;15.40;99.90;;;;;;6246416;23;20407;-88
2022/10/15 05:48:25;;;;;;;1.80;1.40;;;;;;;;;;6246982;23;20413;-88
2022/10/15 05:50:52;;;;;;;3.50;1.33;;;;;;;;;;6248288;23;20407;-89
2022/10/15 05:53:18;;;;;;;1.07;0.97;;;;;;;;;;6250264;23;20450;-90
2022/10/15 05:55:44;;;;;;;1.30;0.90;;;;;;;;;;6247294;23;20379;-90
2022/10/15 05:58:10;;;;;;;4.30;2.30;;;;;;;;;;6245244;23;20423;-88
2022/10/15 06:00:38;;;;;;;4.57;2.40;;;;;;;;;;6243219;23;20393;-88
2022/10/15 06:03:04;;;;;;;1.70;1.27;;;;;;;;;;6245812;22;20565;-90
2022/10/15 06:05:40;;;;;;;5.13;2.50;;;;;;;;;;6243784;23;20933;-87
2022/10/15 06:08:06;;;;;;;6.33;3.13;;;;;;;;;;6245918;23;20382;-86
2022/10/15 06:10:35;;;;;;;2.90;1.73;;;15.20;99.90;;;;;;6244634;23;20743;-88
2022/10/15 06:13:01;;;;;;;1.37;1.13;;;;;;;;;;6245728;23;20981;-89
2022/10/15 06:15:27;;;;;;;4.37;1.60;;;;;;;;;;6246108;23;20918;-88
2022/10/15 06:17:54;;;;;;;3.30;1.93;;;;;;;;;;6246389;23;20423;-88
2022/10/15 06:20:20;;;;;;;3.03;1.60;;;;;;;;;;6246091;23;20374;-88
2022/10/15 06:23:11;;;;;;;1.70;1.43;;;15.20;99.90;;;;;;6245710;23;20374;-87
2022/10/15 06:25:38;;;;;;;1.90;1.80;;;;;;;;;;6247625;23;20746;-88
2022/10/15 06:28:05;;;;;;;2.30;2.07;;;15.20;99.90;;;;;;6249462;22;20881;-87
2022/10/15 06:31:06;;;;;;;1.83;1.30;;;15.20;99.90;;;;;;6254357;22;20413;-88
2022/10/15 06:33:33;;;;;;;3.07;1.77;;;;;;;;;;6251178;23;20828;-90
2022/10/15 06:36:04;;;;;;;4.40;2.20;;;15.20;99.90;;;;;;6248555;23;20432;-88
2022/10/15 06:38:38;;;;;;;3.33;2.33;;;15.20;99.90;;;;;;6246318;22;21116;-88
2022/10/15 06:41:05;;;;;;;3.83;1.87;;;15.30;99.90;;;;;;6245264;23;20372;-89
2022/10/15 06:43:30;;;;;;;4.33;4.03;;;15.30;99.90;;;;;;6244977;23;20379;-88
2022/10/15 06:46:41;;;;;;;1.83;1.40;;;15.30;99.90;;;;;;6246005;23;20386;-87
2022/10/15 06:49:07;;;;;;;2.80;1.50;;;;;;;;;;6245847;23;20638;-87
2022/10/15 06:51:33;;;;;;;2.33;1.53;;;;;;;;;;6245389;23;20422;-88
2022/10/15 06:53:59;;;;;;;2.43;2.23;;;;;;;;;;6244619;23;21143;-88
2022/10/15 06:56:25;;;;;;;2.33;1.90;;;;;;;;;;6243897;23;20386;-87
2022/10/15 06:58:55;;;;;;;4.23;1.40;;;15.30;99.90;;;;;;6242327;23;20399;-88
2022/10/15 07:01:20;;;;;;;1.40;1.30;;;15.40;99.90;;;;;;6243545;23;20387;-88
2022/10/15 07:03:50;;;;;;;2.10;1.37;;;16.80;99.90;;;;;;6241143;23;20375;-87
2022/10/15 07:06:16;;;;;;;6.10;3.10;;;16.80;99.90;;;;;;6243845;23;20176;-88
2022/10/15 07:08:42;;;;;;;1.57;1.20;;;;;;;;;;6242656;23;20422;-87
2022/10/15 07:11:08;;;;;;;3.80;1.10;;;;;;;;;;6243720;22;20467;-83
2022/10/15 07:13:34;;;;;;;2.47;1.10;;;;;;;;;;6249183;23;20469;-82
2022/10/15 07:16:11;;;;;;;1.23;0.93;;;15.50;99.90;;;;;;6250001;23;20740;-82
2022/10/15 07:18:37;;;;;;;1.97;1.20;;;15.50;99.90;;;;;;6252045;22;20371;-81
2022/10/15 07:21:05;;;;;;;1.43;1.27;;;15.60;99.90;;;;;;6250647;22;20364;-82
2022/10/15 07:23:31;;;;;;;3.07;1.13;;;15.60;99.90;;;;;;6249309;22;20409;-82
2022/10/15 07:25:57;;;;;;;3.97;1.93;;;;;;;;;;6248014;23;20447;-80
2022/10/15 07:28:23;;;;;;;2.30;1.40;;;;;;;;;;6250376;23;20216;-83
2022/10/15 07:30:49;;;;;;;1.37;1.13;;;15.70;99.90;;;;;;6250280;23;20387;-83
2022/10/15 07:33:15;;;;;;;1.30;1.20;;;15.70;99.90;;;;;;6249617;23;20399;-85
2022/10/15 07:35:41;;;;;;;1.97;1.47;;;15.80;99.90;;;;;;6248156;23;20157;-82
2022/10/15 07:38:07;;;;;;;2.43;1.10;;;;;;;;;;6248658;23;20731;-81
2022/10/15 07:40:33;;;;;;;2.30;1.10;;;;;;;;;;6249693;23;20141;-84
2022/10/15 07:42:59;;;;;;;1.27;1.00;;;15.70;99.90;;;;;;6249126;23;20390;-85
2022/10/15 07:45:25;;;;;;;2.60;0.90;;;15.70;99.90;;;;;;6248615;23;20430;-85
2022/10/15 07:47:51;;;;;;;2.40;1.07;;;15.70;99.90;;;;;;6249555;22;20434;-85
2022/10/15 07:50:17;;;;;;;2.07;1.20;;;15.80;99.90;;;;;;6249266;23;20359;-85
2022/10/15 07:52:43;;;;;;;3.60;1.43;;;16.10;99.90;;;;;;6248664;23;20394;-85
2022/10/15 07:55:09;;;;;;;2.93;0.90;;;16.10;99.90;;;;;;6249272;23;20937;-85
2022/10/15 07:57:35;;;;;;;0.83;0.83;;;16.10;99.90;;;;;;6251715;22;20512;-85
2022/10/15 08:00:00;;;;;;;0.83;0.83;;;16.30;99.90;;;;;;6250097;23;20375;-84
2022/10/15 08:02:26;;;;;;;1.00;0.90;;;16.40;99.90;;;;;;6249695;23;20164;-85
2022/10/15 08:04:51;;;;;;;2.60;1.17;;;16.50;99.90;;;;;;6247521;23;20176;-85
2022/10/15 08:07:17;;;;;;;0.80;0.80;;;16.50;99.90;;;;;;6248493;22;20156;-85
2022/10/15 08:09:42;;;;;;;1.00;0.80;;;16.50;99.90;;;;;;6248315;23;20163;-86
2022/10/15 08:12:08;;;;;;;2.70;1.10;;;16.40;99.90;;;;;;6248626;23;20195;-84
2022/10/15 08:14:35;;;;;;;0.90;0.80;;;16.40;99.90;;;;;;6248860;23;20476;-85
2022/10/15 08:17:02;;;;;;;2.00;1.10;;;16.50;99.90;;;;;;6247347;23;20176;-84
2022/10/15 08:19:28;;;;;;;3.30;0.83;;;;;;;;;;6246638;23;20735;-85
2022/10/15 08:21:53;;;;;;;1.37;0.73;;;16.40;99.90;;;;;;6248164;23;20378;-85
2022/10/15 08:24:19;;;;;;;1.77;1.03;;;16.40;99.90;;;;;;6247025;23;20494;-84
2022/10/15 08:26:45;;;;;;;2.70;1.20;;;16.40;99.90;;;;;;6249285;23;20602;-84
2022/10/15 08:29:11;;;;;;;3.23;1.00;;;16.50;99.90;;;;;;6248276;22;20662;-83
2022/10/15 08:31:38;;;;;;;3.47;1.10;;;16.50;99.90;;;;;;6247348;23;20375;-84
2022/10/15 08:34:03;;;;;;;2.03;1.43;;;16.60;99.90;;;;;;6248370;23;20396;-84
2022/10/15 08:36:29;;;;;;;2.33;1.20;;;16.60;99.90;;;;;;6249129;23;20699;-84
2022/10/15 08:38:54;;;;;;;3.73;2.20;;;16.60;99.90;;;;;;6248639;23;20455;-84
2022/10/15 08:41:31;;;;;;;4.80;0.90;;;16.80;99.90;;;;;;6250180;22;20159;-84
2022/10/15 08:43:58;;;;;;;3.77;1.37;;;16.80;99.90;;;;;;6249222;22;20218;-84
2022/10/15 08:46:30;;;;;;;1.70;1.23;;;17.00;99.90;;;;;;6247470;23;20367;-85
2022/10/15 08:48:58;;;;;;;3.03;2.80;;;17.20;99.90;;;;;;6248163;23;20378;-83
2022/10/15 08:51:41;;;;;;;1.13;0.50;;;17.10;99.90;;;;;;6250599;22;20380;-84
2022/10/15 08:54:14;;;;;;;4.97;2.17;;;17.10;99.90;;;;;;6251696;22;20414;-82
2022/10/15 08:56:43;;;;;;;1.53;0.90;;;17.20;99.90;;;;;;6248829;23;20407;-83
2022/10/15 08:59:21;;;;;;;1.00;0.90;;;17.20;99.90;;;;;;6249916;22;20415;-84
2022/10/15 09:01:54;;;;;;;1.30;0.80;;;17.40;99.90;;;;;;6250811;23;20355;-84
2022/10/15 09:04:25;;;;;;;1.50;1.00;;;17.30;99.90;;;;;;6250825;22;20749;-83
2022/10/15 09:07:31;;;;;;;3.90;1.17;;;17.40;99.90;;;;;;6249289;23;20414;-84
2022/10/15 09:10:14;;;;;;;1.77;0.90;;;17.50;99.90;;;;;;6250697;23;20404;-83
2022/10/15 09:12:54;;;;;;;0.90;0.90;;;17.40;99.90;;;;;;6252725;22;20874;-83
2022/10/15 09:15:22;;;;;;;4.47;1.20;;;17.40;99.90;;;;;;6250734;22;20533;-83
2022/10/15 09:17:50;;;;;;;1.63;0.90;;;17.50;99.90;;;;;;6248655;23;20502;-84
2022/10/15 09:20:19;;;;;;;2.20;1.03;;;17.50;99.90;;;;;;6250609;22;20364;-83
2022/10/15 09:22:49;;;;;;;1.10;0.83;;;18.00;99.90;;;;;;6249440;23;20399;-83
2022/10/15 09:25:20;;;;;;;2.33;0.80;;;18.10;99.90;;;;;;6251515;22;20351;-84
2022/10/15 09:27:48;;;;;;;2.63;0.90;;;18.40;99.90;;;;;;6249363;23;20833;-84
2022/10/15 09:30:33;;;;;;;1.93;0.93;;;18.30;99.90;;;;;;6250311;23;20383;-84
2022/10/15 09:33:05;;;;;;;2.40;1.03;;;18.10;99.90;;;;;;6251704;22;20426;-83
2022/10/15 09:35:43;;;;;;;2.83;0.77;;;18.10;99.90;;;;;;6252120;23;20371;-83
2022/10/15 09:38:48;;;;;;;13.20;6.13;;;18.10;99.90;;;;;;6249795;23;20419;-83
2022/10/15 09:41:45;;;;;;;15.23;8.90;;;18.20;99.90;;;;;;6250171;22;20383;-83
2022/10/15 09:44:13;;;;;;;2.23;1.90;;;18.10;99.90;;;;;;6249923;23;20386;-83
2022/10/15 09:46:46;;;;;;;1.87;0.87;;;17.80;99.90;;;;;;6250113;22;20355;-83
2022/10/15 09:49:19;;;;;;;5.33;1.00;;;17.90;99.90;;;;;;6251574;22;20372;-83
2022/10/15 09:52:16;;;;;;;2.57;1.10;;;18.00;99.90;;;;;;6250968;22;20417;-83
2022/10/15 09:55:14;;;;;;;1.20;0.73;;;18.10;99.90;;;;;;6249120;23;20808;-84
2022/10/15 09:57:40;;;;;;;2.63;1.00;;;18.00;99.90;;;;;;6249509;23;20414;-83
2022/10/15 10:00:12;;;;;;;1.27;0.80;;;18.40;99.90;;;;;;6252008;22;21045;-83
2022/10/15 10:02:38;;;;;;;1.83;0.90;;;19.20;99.90;;;;;;6252021;22;20383;-83
2022/10/15 10:05:25;;;;;;;2.20;0.60;;;19.20;99.90;;;;;;6249975;23;20367;-82
2022/10/15 10:08:09;;;;;;;3.40;0.80;;;19.70;99.90;;;;;;6249990;23;20379;-86
2022/10/15 10:10:36;;;;;;;1.67;0.63;;;20.30;99.90;;;;;;6251137;22;20391;-84
2022/10/15 10:13:04;;;;;;;0.60;0.43;;;20.10;99.90;;;;;;6253283;22;20399;-82
2022/10/15 10:15:34;;;;;;;1.13;0.80;;;20.20;99.90;;;;;;6253379;22;20398;-83
2022/10/15 10:18:00;;;;;;;0.97;0.60;;;20.10;99.90;;;;;;6253337;22;20787;-83
2022/10/15 10:20:28;;;;;;;0.73;0.67;;;20.60;99.90;;;;;;6252179;22;20917;-84
2022/10/15 10:22:55;;;;;;;4.10;0.60;;;20.70;99.90;;;;;;6252416;22;20387;-85
2022/10/15 10:25:29;;;;;;;2.83;0.43;;;20.50;99.90;;;;;;6252241;22;20376;-83
2022/10/15 10:28:04;;;;;;;2.80;0.70;;;20.00;99.90;;;;;;6253584;23;20360;-83
2022/10/15 10:30:42;;;;;;;1.47;0.97;;;20.10;99.90;;;;;;6251229;23;20708;-85
2022/10/15 10:33:13;;;;;;;0.60;0.50;;;19.80;99.90;;;;;;6253088;22;20887;-85
2022/10/15 10:35:48;;;;;;;3.50;0.60;;;19.70;99.90;;;;;;6253674;22;20978;-85
2022/10/15 10:38:22;;;;;;;0.60;0.40;;;19.30;99.90;;;;;;6252753;22;20407;-85
2022/10/15 10:40:59;;;;;;;1.53;0.30;;;19.10;99.90;;;;;;6251096;23;20390;-85
2022/10/15 10:43:29;;;;;;;0.93;0.40;;;18.80;99.90;;;;;;6253324;22;20816;-83
2022/10/15 10:45:58;;;;;;;2.30;0.57;;;18.30;99.90;;;;;;6251676;23;20384;-85
2022/10/15 10:48:46;;;;;;;0.60;0.40;;;18.30;99.90;;;;;;6252371;23;20375;-85
2022/10/15 10:51:22;;;;;;;1.37;0.30;;;18.80;99.90;;;;;;6250137;23;20376;-84
2022/10/15 10:54:02;;;;;;;1.47;0.40;;;18.80;99.90;;;;;;6252879;22;20940;-84
2022/10/15 10:56:34;;;;;;;0.60;0.30;;;18.90;99.90;;;;;;6251877;22;20456;-85
2022/10/15 10:59:09;;;;;;;0.90;0.30;;;19.00;99.90;;;;;;6252495;22;20414;-84
2022/10/15 11:01:34;;;;;;;0.73;0.50;;;19.70;99.90;;;;;;6252911;22;20841;-84
2022/10/15 11:04:00;;;;;;;1.90;0.90;;;19.80;99.90;;;;;;6250982;23;20391;-85
2022/10/15 11:06:59;;;;;;;3.03;1.03;;;20.30;99.90;;;;;;6251893;22;20157;-85
2022/10/15 11:09:28;;;;;;;0.90;0.47;;;19.80;99.90;;;;;;6251063;23;20364;-84
2022/10/15 11:12:27;;;;;;;1.17;0.70;;;19.10;99.90;;;;;;6250543;23;20392;-85
2022/10/15 11:15:18;;;;;;;1.70;0.60;;;19.20;99.90;;;;;;6250540;23;20395;-85
2022/10/15 11:17:49;;;;;;;1.63;0.60;;;19.30;99.90;;;;;;6248568;23;20473;-84
2022/10/15 11:20:20;;;;;;;1.17;1.00;;;19.30;99.90;;;;;;6253104;22;20347;-84
2022/10/15 11:23:10;;;;;;;5.43;0.87;;;19.40;99.90;;;;;;6250933;23;20399;-84
2022/10/15 11:25:58;;;;;;;1.47;0.73;;;19.30;99.90;;;;;;6253492;23;20344;-84
2022/10/15 11:29:00;;;;;;;2.37;0.40;;;19.60;99.90;;;;;;6249623;23;20376;-86
2022/10/15 11:31:44;;;;;;;2.73;1.20;;;20.10;99.90;;;;;;6251796;23;20378;-85
2022/10/15 11:34:35;;;;;;;1.27;0.83;;;21.00;99.90;;;;;;6251845;23;20469;-85
2022/10/15 11:37:29;;;;;;;1.20;1.00;;;21.10;99.90;;;;;;6252348;22;20407;-85
2022/10/15 11:40:22;;;;;;;2.50;0.50;;;21.40;99.90;;;;;;6252725;22;20352;-85
2022/10/15 11:42:56;;;;;;;1.73;0.70;;;21.70;99.90;;;;;;6251171;22;20402;-85
2022/10/15 11:45:57;;;;;;;4.27;0.90;;;21.70;99.90;;;;;;6251259;22;20352;-85
2022/10/15 11:48:37;;;;;;;10.87;0.77;;;20.90;99.90;;;;;;6252158;22;20430;-85
2022/10/15 11:51:09;;;;;;;0.80;0.50;;;20.90;99.90;;;;;;6250638;23;20375;-84
2022/10/15 11:53:49;;;;;;;2.17;0.50;;;21.30;99.90;;;;;;6248756;23;20399;-85
2022/10/15 11:56:21;;;;;;;2.33;0.77;;;20.80;99.90;;;;;;6252416;22;20360;-85
2022/10/15 11:58:55;;;;;;;0.70;0.40;;;21.00;99.90;;;;;;6251059;23;20380;-84
2022/10/15 12:01:27;;;;;;;0.60;0.30;;;21.00;99.90;;;;;;6251953;23;20360;-85
2022/10/15 12:03:58;;;;;;;1.03;0.50;;;21.10;99.90;;;;;;6251221;23;20486;-85
2022/10/15 12:06:34;;;;;;;0.60;0.53;;;20.80;99.90;;;;;;6250039;23;20429;-86
2022/10/15 12:09:01;;;;;;;1.47;0.90;;;20.40;99.90;;;;;;6250914;23;20355;-85
2022/10/15 12:11:52;;;;;;;0.50;0.40;;;20.30;99.90;;;;;;6252645;22;20908;-84
2022/10/15 12:14:26;;;;;;;0.80;0.60;;;20.30;99.90;;;;;;6251803;22;20406;-85
2022/10/15 12:17:07;;;;;;;2.50;0.80;;;20.40;99.90;;;;;;6250978;23;20482;-84
2022/10/15 12:19:42;;;;;;;0.80;0.60;;;20.30;99.90;;;;;;6253311;22;20352;-85
2022/10/15 12:22:10;;;;;;;0.97;0.50;;;19.80;99.90;;;;;;6252446;22;20363;-84
2022/10/15 12:24:47;;;;;;;2.00;0.80;;;19.80;99.90;;;;;;6251997;22;20819;-84
2022/10/15 12:27:18;;;;;;;0.53;0.43;;;19.80;99.90;;;;;;6251646;22;20359;-84
2022/10/15 12:30:10;;;;;;;2.37;0.57;;;20.20;99.90;;;;;;6250665;23;20439;-84
2022/10/15 12:32:47;;;;;;;0.80;0.57;;;20.20;99.90;;;;;;6249182;23;20406;-84
2022/10/15 12:35:13;;;;;;;1.03;0.80;;;20.20;99.90;;;;;;6250981;22;20829;-85
2022/10/15 12:37:40;;;;;;;6.00;1.17;;;20.20;99.90;;;;;;6249703;23;20423;-84
2022/10/15 12:40:28;;;;;;;1.77;0.93;;;20.20;99.90;;;;;;6251503;22;20144;-85
2022/10/15 12:43:01;;;;;;;6.97;0.67;;;20.00;99.90;;;;;;6250305;22;20980;-84
2022/10/15 12:45:29;;;;;;;2.30;0.50;;;20.20;99.90;;;;;;6249781;23;20376;-83
2022/10/15 12:48:15;;;;;;;1.10;0.50;;;20.20;99.90;;;;;;6251427;23;20425;-84
2022/10/15 12:50:41;;;;;;;2.10;0.80;;;20.20;99.90;;;;;;6251365;23;20360;-84
2022/10/15 12:53:28;;;;;;;0.83;0.40;;;20.40;99.90;;;;;;6251336;22;20395;-85
2022/10/15 12:56:12;;;;;;;1.00;0.40;;;20.30;99.90;;;;;;6251599;22;20356;-85
2022/10/15 12:58:39;;;;;;;3.00;0.97;;;20.10;99.90;;;;;;6251178;22;20415;-84
2022/10/15 13:01:14;;;;;;;1.50;0.70;;;19.90;99.90;;;;;;6251160;22;20372;-86
2022/10/15 13:03:50;;;;;;;3.80;0.73;;;19.70;99.90;;;;;;6248206;22;20454;-87
2022/10/15 13:06:36;;;;;;;3.97;0.90;;;19.60;99.90;;;;;;6256230;23;20355;-86
2022/10/15 13:09:02;;;;;;;5.43;0.70;;;;;;;;;;6243069;23;20411;-88
2022/10/15 13:11:31;;;;;;;0.60;0.50;;;19.60;99.90;;;;;;6241665;23;20461;-88
2022/10/15 13:14:16;;;;;;;5.60;0.50;;;19.50;99.90;;;;;;6242180;22;20431;-89
2022/10/15 13:16:47;;;;;;;1.37;0.50;;;19.40;99.90;;;;;;6241013;23;20415;-90
2022/10/15 13:19:22;;;;;;;0.63;0.50;;;19.50;99.90;;;;;;6243615;23;20561;-89
2022/10/15 13:22:02;;;;;;;1.57;0.50;;;19.60;99.90;;;;;;6245560;23;20919;-88
2022/10/15 13:24:38;;;;;;;5.63;0.70;;;19.60;99.90;;;;;;6241495;22;20356;-88
2022/10/15 13:27:20;;;;;;;3.53;0.80;;;20.30;99.90;;;;;;6241527;22;20361;-88
2022/10/15 13:29:53;;;;;;;0.80;0.60;;;19.60;99.90;;;;;;6242053;22;20363;-87
2022/10/15 13:32:20;;;;;;;0.60;0.50;;;;;;;;;;6240137;23;20395;-88
2022/10/15 13:34:45;;;;;;;0.60;0.50;;;19.50;99.90;;;;;;6230940;23;20752;-89
2022/10/15 13:37:17;;;;;;;0.80;0.70;;;19.10;99.90;;;;;;6240823;23;20431;-88
2022/10/15 13:39:43;;;;;;;0.93;0.50;;;;;;;;;;6243566;23;20359;-89
2022/10/15 13:42:23;;;;;;;2.53;0.57;;;18.90;99.90;;;;;;6238539;23;20363;-89
2022/10/15 13:45:17;;;;;;;2.90;0.73;;;19.00;99.90;;;;;;6242589;22;20360;-88
2022/10/15 13:47:51;;;;;;;1.00;0.60;;;19.10;99.90;;;;;;6244534;22;20356;-89
2022/10/15 13:50:24;;;;;;;0.40;0.30;;;18.90;99.90;;;;;;6246144;22;20426;-89